Time;durP1;ratioP1;P1;durP2;ratioP2;P2;SDS_P1;SDS_P2;PMS_P1;PMS_P2;Temp;Humidity;BMP_temperature;BMP_pressure;BME280_temperature;BME280_humidity;BME280_pressure;Samples;Min_cycle;Max_cycle;Signal;HPM_P1;HPM_P2
2023/10/06 04:41:45;;;;;;;1.77;1.20;;;;;;;;;;5079585;27;20475;-82
2023/10/06 04:44:10;;;;;;;1.27;1.17;;;;;;;;;;5077761;28;20036;-81
2023/10/06 04:46:37;;;;;;;2.78;1.33;;;;;;;;;;5077909;28;20025;-83
2023/10/06 04:49:03;;;;;;;1.05;0.65;;;;;;;;;;5074421;28;20032;-82
2023/10/06 04:51:28;;;;;;;2.42;1.52;;;;;;;;;;5081828;28;20094;-83
2023/10/06 04:53:54;;;;;;;2.35;1.95;;;;;;;;;;5074503;28;20084;-83
2023/10/06 04:56:20;;;;;;;4.15;2.03;;;;;;;;;;5073606;28;20020;-81
2023/10/06 04:58:46;;;;;;;1.42;1.33;;;;;;;;;;5075414;28;20475;-81
2023/10/06 05:01:12;;;;;;;1.05;0.90;;;;;;;;;;5069791;28;20462;-81
2023/10/06 05:03:42;;;;;;;2.00;1.80;;;;;;;;;;5072114;28;20054;-84
2023/10/06 05:06:09;;;;;;;6.78;0.90;;;;;;;;;;5070449;28;20123;-84
2023/10/06 05:08:35;;;;;;;2.55;1.77;;;;;;;;;;5060565;28;20032;-81
2023/10/06 05:11:02;;;;;;;1.60;1.50;;;;;;;;;;5070038;28;20028;-81
2023/10/06 05:13:27;;;;;;;11.38;2.15;;;;;;;;;;5066639;28;20432;-81
2023/10/06 05:15:52;;;;;;;2.78;2.17;;;;;;;;;;5073742;28;20024;-81
2023/10/06 05:18:18;;;;;;;3.63;1.80;;;;;;;;;;5072061;28;20028;-77
2023/10/06 05:20:44;;;;;;;2.15;1.90;;;;;;;;;;5073924;28;20424;-79
2023/10/06 05:23:09;;;;;;;4.28;2.00;;;;;;;;;;5070458;28;20103;-81
2023/10/06 05:25:38;;;;;;;2.50;1.65;;;;;;;;;;5072976;28;20028;-80
2023/10/06 05:28:05;;;;;;;4.43;1.90;;;;;;;;;;5066700;28;20031;-81
2023/10/06 05:30:31;;;;;;;2.20;1.27;;;;;;;;;;5072998;28;20724;-79
2023/10/06 05:32:58;;;;;;;3.60;2.03;;;;;;;;;;5068588;28;20031;-78
2023/10/06 05:35:38;;;;;;;3.13;1.67;;;;;;;;;;5071525;28;20024;-79
2023/10/06 05:38:08;;;;;;;4.45;1.95;;;;;;;;;;5065272;28;20423;-80
2023/10/06 05:40:36;;;;;;;;;;;;;;;;;;5073316;28;20040;-79
2023/10/06 05:43:02;;;;;;;2.35;2.05;;;;;;;;;;5070450;28;20407;-80
2023/10/06 05:45:29;;;;;;;3.20;1.67;;;;;;;;;;5082468;28;20103;-82
2023/10/06 05:47:58;;;;;;;1.65;1.17;;;;;;;;;;5069481;28;20498;-82
2023/10/06 05:50:27;;;;;;;1.45;1.30;;;;;;;;;;5073060;28;20383;-80
2023/10/06 05:53:04;;;;;;;1.40;1.08;;;;;;;;;;5057168;28;20472;-81
2023/10/06 05:55:37;;;;;;;6.78;1.48;;;;;;;;;;5059181;28;20052;-82
2023/10/06 05:58:04;;;;;;;2.95;2.08;;;;;;;;;;5049706;28;20020;-81
2023/10/06 06:00:32;;;;;;;1.55;0.98;;;;;;;;;;5054964;28;20071;-81
2023/10/06 06:02:59;;;;;;;8.60;2.08;;;;;;;;;;5049116;28;20506;-80
2023/10/06 06:05:33;;;;;;;1.98;1.73;;;;;;;;;;5054895;28;20028;-79
2023/10/06 06:08:00;;;;;;;2.78;1.88;;;;;;;;;;5041501;28;20456;-81
2023/10/06 06:10:28;;;;;;;7.65;2.17;;;;;;;;;;5043445;28;20071;-81
2023/10/06 06:12:59;;;;;;;1.50;1.40;;;;;;;;;;5046282;28;20037;-81
2023/10/06 06:15:26;;;;;;;2.50;1.25;;;;;;;;;;5045600;28;20408;-82
2023/10/06 06:17:53;;;;;;;1.98;1.20;;;;;;;;;;5043339;28;20024;-81
2023/10/06 06:20:21;;;;;;;2.78;1.45;;;;;;;;;;5046209;28;20029;-80
2023/10/06 06:22:53;;;;;;;2.25;1.60;;;;;;;;;;5046115;28;20472;-81
2023/10/06 06:25:22;;;;;;;5.43;2.33;;;;;;;;;;5048557;28;20025;-83
2023/10/06 06:27:49;;;;;;;1.92;1.27;;;;;;;;;;5045462;28;20464;-80
2023/10/06 06:30:18;;;;;;;1.60;1.05;;;;;;;;;;5046830;28;20036;-80
2023/10/06 06:32:50;;;;;;;4.03;1.88;;;;;;;;;;5044364;28;20067;-81
2023/10/06 06:35:19;;;;;;;2.25;1.77;;;;;;;;;;5044753;28;20559;-82
2023/10/06 06:37:54;;;;;;;1.65;1.17;;;;;;;;;;5042484;28;20118;-80
2023/10/06 06:40:20;;;;;;;4.28;2.65;;;;;;;;;;5042385;28;20417;-81
2023/10/06 06:42:49;;;;;;;8.73;2.55;;;;;;;;;;5056934;28;20114;-80
2023/10/06 06:45:15;;;;;;;1.52;1.25;;;;;;;;;;5055089;28;20033;-80
2023/10/06 06:47:41;;;;;;;3.03;1.52;;;;;;;;;;5051371;28;20388;-80
2023/10/06 06:50:09;;;;;;;2.15;1.50;;;;;;;;;;5050746;28;20029;-82
2023/10/06 06:52:35;;;;;;;6.18;3.17;;;;;;;;;;5058449;28;20079;-81
2023/10/06 06:55:01;;;;;;;3.20;2.05;;;;;;;;;;5056803;28;20029;-84
2023/10/06 06:57:26;;;;;;;2.30;1.92;;;;;;;;;;5062075;28;20028;-83
2023/10/06 06:59:52;;;;;;;4.45;2.17;;;;;;;;;;5063829;28;20079;-82
2023/10/06 07:02:18;;;;;;;1.90;1.52;;;;;;;;;;5055679;28;20111;-81
2023/10/06 07:04:44;;;;;;;2.97;1.85;;;;;;;;;;5051362;28;20029;-81
2023/10/06 07:07:09;;;;;;;1.83;1.35;;;;;;;;;;5054082;28;20124;-82
2023/10/06 07:09:35;;;;;;;5.18;2.30;;;;;;;;;;5056706;28;20107;-81
2023/10/06 07:12:00;;;;;;;1.58;1.27;;;;;;;;;;5058941;28;20468;-82
2023/10/06 07:14:27;;;;;;;7.38;1.17;;;;;;;;;;5051821;28;20020;-81
2023/10/06 07:16:53;;;;;;;6.60;1.48;;;;;;;;;;5055370;28;20021;-81
2023/10/06 07:19:19;;;;;;;4.22;2.42;;;;;;;;;;5052926;28;20052;-82
2023/10/06 07:21:44;;;;;;;1.73;1.02;;;;;;;;;;5064030;28;20427;-81
2023/10/06 07:24:13;;;;;;;4.20;2.30;;;;;;;;;;5063012;28;20422;-82
2023/10/06 07:26:42;;;;;;;1.43;1.33;;;;;;;;;;5062355;28;20053;-81
2023/10/06 07:29:08;;;;;;;2.22;1.63;;;;;;;;;;5062058;28;20037;-81
2023/10/06 07:31:35;;;;;;;3.75;1.98;;;;;;;;;;5062120;28;20540;-82
2023/10/06 07:34:05;;;;;;;3.75;1.80;;;;;;;;;;5050405;28;20031;-80
2023/10/06 07:36:33;;;;;;;3.25;2.17;;;;;;;;;;5051823;28;20025;-81
2023/10/06 07:38:58;;;;;;;3.15;1.90;;;;;;;;;;5053914;28;20070;-82
2023/10/06 07:41:24;;;;;;;3.13;1.70;;;;;;;;;;5058939;28;20037;-81
2023/10/06 07:43:50;;;;;;;3.03;1.83;;;;;;;;;;5060354;28;20029;-81
2023/10/06 07:46:16;;;;;;;3.72;1.08;;;;;;;;;;5062007;28;20075;-82
2023/10/06 07:48:44;;;;;;;2.35;1.80;;;;;;;;;;5058311;28;20475;-82
2023/10/06 07:51:13;;;;;;;2.00;1.45;;;;;;;;;;5060251;28;20029;-81
2023/10/06 07:53:39;;;;;;;2.05;1.60;;;;;;;;;;5053122;28;20032;-81
2023/10/06 07:56:08;;;;;;;2.03;1.45;;;;;;;;;;5054254;28;20036;-82
2023/10/06 07:58:38;;;;;;;3.22;2.13;;;;;;;;;;5059611;28;20549;-83
2023/10/06 08:01:12;;;;;;;2.03;1.35;;;;;;;;;;5063650;28;20028;-82
2023/10/06 08:03:40;;;;;;;3.85;1.95;;;;;;;;;;5059202;28;20032;-82
2023/10/06 08:06:05;;;;;;;3.10;2.00;;;;;;;;;;5056800;28;20016;-83
2023/10/06 08:08:35;;;;;;;2.13;1.75;;;;;;;;;;5056224;28;20052;-81
2023/10/06 08:11:02;;;;;;;3.53;2.08;;;;;;;;;;5060277;28;20110;-82
2023/10/06 08:13:33;;;;;;;1.85;1.70;;;;;;;;;;5059507;28;20032;-82
2023/10/06 08:16:00;;;;;;;3.00;2.15;;;;;;;;;;5053407;28;20020;-82
2023/10/06 08:18:29;;;;;;;3.47;2.13;;;;;;;;;;5059207;28;20385;-81
2023/10/06 08:21:03;;;;;;;4.53;2.63;;;;;;;;;;5065765;28;20507;-81
2023/10/06 08:23:29;;;;;;;2.65;2.10;;;;;;;;;;5056333;28;20131;-81
2023/10/06 08:25:56;;;;;;;2.47;2.15;;;;;;;;;;5050061;28;20111;-81
2023/10/06 08:28:26;;;;;;;2.97;2.42;;;;;;;;;;5060239;28;20110;-82
2023/10/06 08:30:51;;;;;;;;;;;;;;;;;;5055477;28;20048;-82
2023/10/06 08:33:17;;;;;;;3.45;2.28;;;;;;;;;;5063122;28;19964;-80
2023/10/06 08:35:44;;;;;;;2.20;1.98;;;;;;;;;;5056971;28;20032;-81
2023/10/06 08:38:09;;;;;;;2.65;1.58;;;;;;;;;;5064897;28;20029;-82
2023/10/06 08:40:44;;;;;;;4.53;2.70;;;;;;;;;;5057958;28;20403;-80
2023/10/06 08:43:16;;;;;;;8.00;2.85;;;;;;;;;;5057843;28;20029;-81
2023/10/06 08:45:41;;;;;;;6.05;2.17;;;;;;;;;;5061718;28;20096;-82
2023/10/06 08:48:11;;;;;;;3.90;2.28;;;;;;;;;;5056554;28;20115;-82
2023/10/06 08:50:37;;;;;;;2.97;1.95;;;;;;;;;;5055479;28;20028;-82
2023/10/06 08:53:05;;;;;;;3.28;2.38;;;;;;;;;;5055809;28;20041;-82
2023/10/06 08:55:31;;;;;;;2.50;1.67;;;;;;;;;;5050550;28;20037;-83
2023/10/06 08:58:00;;;;;;;3.22;2.22;;;;;;;;;;5058103;28;20070;-81
2023/10/06 09:00:31;;;;;;;2.83;2.47;;;;;;;;;;5053936;28;20082;-85
2023/10/06 09:03:03;;;;;;;6.78;2.83;;;;;;;;;;5056858;28;20032;-84
2023/10/06 09:05:29;;;;;;;2.05;1.58;;;;;;;;;;5053830;28;20036;-84
2023/10/06 09:07:59;;;;;;;3.08;1.90;;;;;;;;;;5059591;28;20495;-84
2023/10/06 09:10:30;;;;;;;5.65;2.20;;;;;;;;;;5055240;28;20435;-84
2023/10/06 09:13:17;;;;;;;3.15;2.35;;;;;;;;;;5055276;28;20060;-83
2023/10/06 09:15:54;;;;;;;2.45;1.88;;;;;;;;;;5052450;28;20049;-85
2023/10/06 09:18:21;;;;;;;3.20;2.67;;;;;;;;;;5055677;28;20078;-88
2023/10/06 09:20:48;;;;;;;8.13;2.75;;;;;;;;;;5054029;28;20492;-86
2023/10/06 09:23:34;;;;;;;3.10;2.13;;;;;;;;;;5053993;28;20033;-87
2023/10/06 09:26:00;;;;;;;3.28;2.25;;;;;;;;;;5062059;28;20024;-86
2023/10/06 09:28:27;;;;;;;8.68;3.13;;;;;;;;;;5061790;28;20017;-87
2023/10/06 09:30:57;;;;;;;2.22;1.80;;;;;;;;;;5061882;28;20028;-87
2023/10/06 09:33:26;;;;;;;2.60;1.90;;;;;;;;;;5060155;28;20077;-85
2023/10/06 09:36:07;;;;;;;4.22;2.03;;;;;;;;;;5064686;28;20112;-90
2023/10/06 09:38:34;;;;;;;4.43;2.67;;;;;;;;;;5067467;28;20025;-87
2023/10/06 09:40:59;;;;;;;3.70;2.45;;;;;;;;;;5065213;28;20037;-84
2023/10/06 09:43:40;;;;;;;4.15;1.92;;;;;;;;;;5059233;28;20143;-83
2023/10/06 09:49:36;;;;;;;3.40;2.63;;;;;;;;;;5061359;28;20047;-84
2023/10/06 09:52:14;;;;;;;3.85;1.90;;;;;;;;;;5057025;28;20143;-83
2023/10/06 09:55:25;;;;;;;2.92;2.67;;;;;;;;;;5059810;28;20038;-83
2023/10/06 09:58:04;;;;;;;4.57;2.72;;;;;;;;;;5060071;28;20113;-84
2023/10/06 10:00:51;;;;;;;4.57;2.40;;;;;;;;;;5048328;28;20032;-85
2023/10/06 10:03:18;;;;;;;4.40;2.85;;;;;;;;;;5052448;28;20075;-82
2023/10/06 10:06:07;;;;;;;5.00;2.33;;;;;;;;;;5065899;28;20074;-85
2023/10/06 10:08:41;;;;;;;3.83;2.37;;;;;;;;;;5055013;28;20500;-87
2023/10/06 10:11:42;;;;;;;2.25;1.77;;;;;;;;;;5057960;28;20780;-84
2023/10/06 10:17:45;;;;;;;3.40;2.17;;;;;;;;;;5030971;28;20128;-80
2023/10/06 10:23:33;;;;;;;2.15;1.92;;;;;;;;;;5039083;28;20045;-83
2023/10/06 10:26:26;;;;;;;1.88;1.63;;;;;;;;;;5033796;28;20036;-83
2023/10/06 10:29:12;;;;;;;1.58;1.30;;;;;;;;;;5034388;28;20025;-83
2023/10/06 10:35:08;;;;;;;2.47;2.03;;;;;;;;;;5052870;28;20048;-82
2023/10/06 10:37:55;;;;;;;2.55;1.50;;;;;;;;;;5033930;28;20044;-83
2023/10/06 10:40:56;;;;;;;3.25;1.80;;;;;;;;;;5038407;28;20047;-83
2023/10/06 10:46:12;;;;;;;3.10;2.28;;;;;;;;;;5043772;28;20055;-82
2023/10/06 10:48:47;;;;;;;3.83;2.55;;;;;;;;;;5055753;28;20151;-82
2023/10/06 10:51:22;;;;;;;1.70;1.58;;;;;;;;;;5048336;28;20028;-83
2023/10/06 10:53:55;;;;;;;3.22;2.13;;;;;;;;;;5055241;28;20631;-83
2023/10/06 10:56:27;;;;;;;3.25;1.77;;;;;;;;;;5051570;28;20029;-83
2023/10/06 10:58:55;;;;;;;3.00;2.08;;;;;;;;;;5055272;28;20547;-82
2023/10/06 11:01:44;;;;;;;1.80;1.25;;;;;;;;;;5057425;28;20053;-82
2023/10/06 11:06:43;;;;;;;2.28;1.48;;;;;;;;;;5056235;28;20040;-82
2023/10/06 11:09:12;;;;;;;1.85;1.60;;;;;;;;;;5056936;28;20047;-82
2023/10/06 11:11:41;;;;;;;4.30;2.00;;;;;;;;;;5059769;28;20024;-82
2023/10/06 11:14:19;;;;;;;;;;;;;;;;;;;;;
2023/10/06 11:16:52;;;;;;;2.78;1.40;;;;;;;;;;5059533;28;20035;-83
2023/10/06 11:19:37;;;;;;;1.88;1.50;;;;;;;;;;5058275;28;20418;-83
2023/10/06 11:22:19;;;;;;;4.28;1.75;;;;;;;;;;5054974;28;20036;-82
2023/10/06 11:24:50;;;;;;;1.30;1.20;;;;;;;;;;5054770;28;20032;-82
2023/10/06 11:27:23;;;;;;;1.58;1.17;;;;;;;;;;5051550;28;20033;-78
2023/10/06 11:29:53;;;;;;;8.18;1.63;;;;;;;;;;5042958;28;20110;-79
2023/10/06 11:32:19;;;;;;;;;;;;;;;;;;5050978;28;20434;-81
2023/10/06 11:34:45;;;;;;;2.95;1.75;;;;;;;;;;5054342;28;20027;-82
2023/10/06 11:37:12;;;;;;;2.42;1.45;;;;;;;;;;5056770;28;20028;-83
2023/10/06 11:39:38;;;;;;;1.52;1.20;;;;;;;;;;5057734;28;20028;-81
2023/10/06 11:42:33;;;;;;;2.05;1.20;;;;;;;;;;5058526;28;20108;-83
2023/10/06 11:45:00;;;;;;;1.45;1.13;;;;;;;;;;5059469;28;20035;-83
2023/10/06 11:47:28;;;;;;;1.52;1.40;;;;;;;;;;5055853;28;20024;-82
2023/10/06 11:49:58;;;;;;;2.90;1.38;;;;;;;;;;5056400;28;20020;-82
2023/10/06 11:52:27;;;;;;;2.28;1.70;;;;;;;;;;5056277;28;20357;-84
2023/10/06 11:54:53;;;;;;;3.60;1.83;;;;;;;;;;5052869;28;20024;-83
2023/10/06 11:57:39;;;;;;;1.42;1.20;;;;;;;;;;5050607;28;20033;-82
2023/10/06 12:00:10;;;;;;;1.98;1.38;;;;;;;;;;5064030;28;20028;-83
2023/10/06 12:02:46;;;;;;;2.95;1.35;;;;;;;;;;5055493;28;20896;-83
2023/10/06 12:05:13;;;;;;;2.17;1.90;;;;;;;;;;5049563;28;20089;-82
2023/10/06 12:07:39;;;;;;;3.92;2.38;;;;;;;;;;5050496;28;20162;-83
2023/10/06 12:10:06;;;;;;;1.90;1.40;;;;;;;;;;5054684;28;20110;-84
2023/10/06 12:12:32;;;;;;;3.38;1.50;;;;;;;;;;5052901;28;20024;-83
2023/10/06 12:14:58;;;;;;;2.67;1.73;;;;;;;;;;5050443;28;20033;-83
2023/10/06 12:17:27;;;;;;;7.35;1.20;;;;;;;;;;5059988;28;20486;-83
2023/10/06 12:19:52;;;;;;;5.33;1.77;;;;;;;;;;5053861;28;20465;-83
2023/10/06 12:22:18;;;;;;;2.17;1.55;;;;;;;;;;5055401;28;20027;-84
2023/10/06 12:24:45;;;;;;;3.08;1.40;;;;;;;;;;5055910;28;20116;-82
2023/10/06 12:27:11;;;;;;;3.58;1.50;;;;;;;;;;5049796;28;20492;-81
2023/10/06 12:29:36;;;;;;;4.40;1.40;;;;;;;;;;5054508;28;20032;-82
2023/10/06 12:32:02;;;;;;;2.00;1.25;;;;;;;;;;5051655;28;20393;-81
2023/10/06 12:34:27;;;;;;;2.17;1.42;;;;;;;;;;5054929;28;20099;-82
2023/10/06 12:37:01;;;;;;;2.10;0.95;;;;;;;;;;5057071;28;20063;-82
2023/10/06 12:39:34;;;;;;;1.10;0.85;;;;;;;;;;5054255;28;20376;-82
2023/10/06 12:42:03;;;;;;;1.20;1.00;;;;;;;;;;5053805;28;20048;-84
2023/10/06 12:44:29;;;;;;;1.75;1.10;;;;;;;;;;5055179;28;20396;-83
2023/10/06 12:46:55;;;;;;;2.05;1.23;;;;;;;;;;5049520;28;20028;-79
2023/10/06 12:49:24;;;;;;;5.38;1.02;;;;;;;;;;5048713;28;20037;-81
2023/10/06 12:51:50;;;;;;;1.75;1.02;;;;;;;;;;5081259;28;20021;-77
2023/10/06 12:54:16;;;;;;;4.53;2.05;;;;;;;;;;5055033;28;20036;-80
2023/10/06 12:56:44;;;;;;;1.08;0.82;;;;;;;;;;5047948;28;20550;-81
2023/10/06 12:59:12;;;;;;;1.55;1.13;;;;;;;;;;5059297;28;20020;-83
2023/10/06 13:01:38;;;;;;;3.55;1.63;;;;;;;;;;5055627;28;20469;-83
2023/10/06 13:04:05;;;;;;;1.83;1.15;;;;;;;;;;5057439;28;20035;-83
2023/10/06 13:06:31;;;;;;;1.13;0.75;;;;;;;;;;5059327;28;20396;-86
2023/10/06 13:09:01;;;;;;;4.68;1.05;;;;;;;;;;5059883;28;20024;-81
2023/10/06 13:11:27;;;;;;;1.95;1.15;;;;;;;;;;5054152;28;20025;-81
2023/10/06 13:13:53;;;;;;;2.70;1.23;;;;;;;;;;5050854;28;20112;-83
2023/10/06 13:16:18;;;;;;;1.52;1.33;;;;;;;;;;5055535;28;20450;-82
2023/10/06 13:18:44;;;;;;;2.30;1.15;;;;;;;;;;5057819;28;20025;-85
2023/10/06 13:21:10;;;;;;;0.93;0.90;;;;;;;;;;5064012;28;20017;-86
2023/10/06 13:23:36;;;;;;;4.85;1.33;;;;;;;;;;5059079;28;20393;-84
2023/10/06 13:26:02;;;;;;;2.10;1.50;;;;;;;;;;5060458;28;20033;-84
2023/10/06 13:28:28;;;;;;;1.38;0.70;;;;;;;;;;5055259;28;20029;-85
2023/10/06 13:30:54;;;;;;;1.95;1.23;;;;;;;;;;5054482;28;20013;-85
2023/10/06 13:33:20;;;;;;;4.13;1.58;;;;;;;;;;5064616;28;20672;-86
2023/10/06 13:35:47;;;;;;;4.78;1.33;;;;;;;;;;5061782;28;20036;-85
2023/10/06 13:38:13;;;;;;;3.80;1.95;;;;;;;;;;5059064;28;20384;-84
2023/10/06 13:40:39;;;;;;;1.83;1.25;;;;;;;;;;5061217;28;20037;-83
2023/10/06 13:43:10;;;;;;;1.15;0.93;;;;;;;;;;5061368;28;20041;-82
2023/10/06 13:45:37;;;;;;;2.38;0.90;;;;;;;;;;5053801;28;20248;-83
2023/10/06 13:48:03;;;;;;;2.40;1.63;;;;;;;;;;5050523;28;20043;-82
2023/10/06 13:50:30;;;;;;;1.92;1.30;;;;;;;;;;5047756;28;20017;-82
2023/10/06 13:52:56;;;;;;;2.25;1.30;;;;;;;;;;5090742;28;20033;-82
2023/10/06 13:55:24;;;;;;;2.65;1.38;;;;;;;;;;5066189;28;20025;-83
2023/10/06 13:57:54;;;;;;;3.50;1.40;;;;;;;;;;5059768;28;20067;-82
2023/10/06 14:00:32;;;;;;;1.98;1.00;;;;;;;;;;5056091;28;20037;-82
2023/10/06 14:03:03;;;;;;;4.85;1.33;;;;;;;;;;5054336;28;20203;-82
2023/10/06 14:05:32;;;;;;;1.60;0.93;;;;;;;;;;5058043;28;20031;-82
2023/10/06 14:08:03;;;;;;;1.02;0.90;;;;;;;;;;5058955;28;20047;-82
2023/10/06 14:10:31;;;;;;;1.33;1.10;;;;;;;;;;5061832;28;20034;-82
2023/10/06 14:13:08;;;;;;;2.03;0.98;;;;;;;;;;5057749;28;20396;-81
2023/10/06 14:15:49;;;;;;;0.77;0.70;;;;;;;;;;5055068;28;20032;-83
2023/10/06 14:18:16;;;;;;;1.45;0.70;;;;;;;;;;5048076;28;20056;-83
2023/10/06 14:20:45;;;;;;;1.77;1.20;;;;;;;;;;5044230;28;20033;-84
2023/10/06 14:23:14;;;;;;;2.20;1.42;;;;;;;;;;5046391;28;20028;-84
2023/10/06 14:25:41;;;;;;;1.45;0.88;;;;;;;;;;5045804;28;20043;-83
2023/10/06 14:28:09;;;;;;;1.80;1.42;;;;;;;;;;5045721;28;20055;-83
2023/10/06 14:30:42;;;;;;;2.35;1.00;;;;;;;;;;5047678;28;20099;-83
2023/10/06 14:46:22;;;;;;;1.25;0.60;;;;;;;;;;5047162;28;20124;-83
2023/10/06 14:48:48;;;;;;;2.13;1.33;;;;;;;;;;5050996;28;20108;-82
2023/10/06 14:51:13;;;;;;;0.80;0.80;;;;;;;;;;5050701;28;20427;-84
2023/10/06 14:53:39;;;;;;;1.48;1.00;;;;;;;;;;5047925;28;20029;-85
2023/10/06 14:56:05;;;;;;;2.00;1.30;;;;;;;;;;5050286;28;20037;-82
2023/10/06 14:58:31;;;;;;;15.52;1.48;;;;;;;;;;5046888;28;20066;-84
2023/10/06 15:01:05;;;;;;;2.30;1.15;;;;;;;;;;5043316;28;20029;-84
2023/10/06 15:03:33;;;;;;;2.42;1.10;;;;;;;;;;5046438;28;20459;-84
2023/10/06 15:06:02;;;;;;;1.60;1.17;;;;;;;;;;5047488;28;20125;-84
2023/10/06 15:08:28;;;;;;;2.60;1.30;;;;;;;;;;5049736;28;20056;-85
2023/10/06 15:10:59;;;;;;;0.50;0.50;;;;;;;;;;5050295;28;20075;-85
2023/10/06 15:13:26;;;;;;;3.40;1.17;;;;;;;;;;5047054;28;20040;-84
2023/10/06 15:15:55;;;;;;;1.17;1.00;;;;;;;;;;5046043;28;20753;-85
2023/10/06 15:18:24;;;;;;;3.40;1.97;;;;;;;;;;5050994;28;20036;-85
2023/10/06 15:20:50;;;;;;;1.75;0.88;;;;;;;;;;5084275;28;20028;-86
2023/10/06 15:23:21;;;;;;;2.60;1.27;;;;;;;;;;5055320;28;20519;-85
2023/10/06 15:26:13;;;;;;;2.33;0.85;;;;;;;;;;5051363;28;20029;-83
2023/10/06 15:28:41;;;;;;;3.33;1.35;;;;;;;;;;5052754;28;20044;-83
2023/10/06 15:31:11;;;;;;;1.50;1.00;;;;;;;;;;5049860;28;20039;-82
2023/10/06 15:33:38;;;;;;;0.77;0.57;;;;;;;;;;5044597;28;20099;-82
2023/10/06 15:36:04;;;;;;;2.28;0.88;;;;;;;;;;5047940;28;20033;-84
2023/10/06 15:38:31;;;;;;;5.97;1.30;;;;;;;;;;5049536;28;20059;-84
2023/10/06 15:41:03;;;;;;;1.10;0.70;;;;;;;;;;5051860;28;20047;-87
2023/10/06 15:43:29;;;;;;;1.83;0.95;;;;;;;;;;5051832;28;20041;-82
2023/10/06 15:46:00;;;;;;;2.55;1.08;;;;;;;;;;5046449;28;20538;-83
2023/10/06 15:48:28;;;;;;;2.17;1.38;;;;;;;;;;5053061;28;20021;-82
2023/10/06 15:51:13;;;;;;;1.02;0.90;;;;;;;;;;5049842;28;20023;-84
2023/10/06 15:53:40;;;;;;;0.98;0.73;;;;;;;;;;5050813;28;20044;-83
2023/10/06 15:56:13;;;;;;;0.70;0.65;;;;;;;;;;5052296;28;20032;-83
2023/10/06 15:58:50;;;;;;;1.48;0.90;;;;;;;;;;5049411;28;20032;-81
2023/10/06 16:01:18;;;;;;;1.40;1.15;;;;;;;;;;5044316;28;20502;-82
2023/10/06 16:03:52;;;;;;;2.03;1.52;;;;;;;;;;5048066;28;20028;-82
2023/10/06 16:06:20;;;;;;;1.30;1.15;;;;;;;;;;5073271;28;20032;-82
2023/10/06 16:08:49;;;;;;;1.77;1.05;;;;;;;;;;5048868;28;20410;-80
2023/10/06 16:11:16;;;;;;;1.80;1.00;;;;;;;;;;5048521;28;20493;-81
2023/10/06 16:13:42;;;;;;;1.33;1.00;;;;;;;;;;5050860;28;20913;-80
2023/10/06 16:16:15;;;;;;;0.70;0.70;;;;;;;;;;5049496;28;20037;-81
2023/10/06 16:18:44;;;;;;;0.57;0.55;;;;;;;;;;5048080;28;20035;-81
2023/10/06 16:21:13;;;;;;;3.03;1.55;;;;;;;;;;5080201;28;20046;-81
2023/10/06 16:23:46;;;;;;;1.00;0.90;;;;;;;;;;5048845;28;20446;-80
2023/10/06 16:26:12;;;;;;;2.63;1.33;;;;;;;;;;5048268;28;20162;-81
2023/10/06 16:28:39;;;;;;;0.68;0.68;;;;;;;;;;5048001;28;20056;-81
2023/10/06 16:31:06;;;;;;;1.25;1.13;;;;;;;;;;5047414;28;20068;-82
2023/10/06 16:33:31;;;;;;;1.75;1.08;;;;;;;;;;5045484;28;20044;-84
2023/10/06 16:35:57;;;;;;;3.55;1.30;;;;;;;;;;5052533;28;20025;-81
2023/10/06 16:38:23;;;;;;;2.13;0.98;;;;;;;;;;5046157;28;20108;-81
2023/10/06 16:40:48;;;;;;;1.85;1.23;;;;;;;;;;5043759;28;20479;-81
2023/10/06 16:43:14;;;;;;;1.63;1.08;;;;;;;;;;5046044;28;20040;-81
2023/10/06 16:45:41;;;;;;;0.95;0.80;;;;;;;;;;5046356;28;20039;-81
2023/10/06 16:48:09;;;;;;;0.98;0.77;;;;;;;;;;5048255;28;20025;-81
2023/10/06 16:50:44;;;;;;;1.33;1.10;;;;;;;;;;5043230;28;20096;-81
2023/10/06 16:53:13;;;;;;;2.05;0.88;;;;;;;;;;5047620;28;20037;-82
2023/10/06 16:55:39;;;;;;;2.15;1.20;;;;;;;;;;5051088;28;20060;-80
2023/10/06 16:58:05;;;;;;;3.10;1.38;;;;;;;;;;5049192;28;20071;-81
2023/10/06 17:00:32;;;;;;;1.98;1.10;;;;;;;;;;5047577;28;20516;-81
2023/10/06 17:02:59;;;;;;;2.25;1.45;;;;;;;;;;5046262;28;21070;-81
2023/10/06 17:05:26;;;;;;;2.25;1.27;;;;;;;;;;5054287;28;20552;-81
2023/10/06 17:07:52;;;;;;;0.70;0.55;;;;;;;;;;5047317;28;20043;-81
2023/10/06 17:10:18;;;;;;;1.42;0.77;;;;;;;;;;5048609;28;20025;-81
2023/10/06 17:12:44;;;;;;;0.52;0.50;;;;;;;;;;5050319;28;20032;-81
2023/10/06 17:15:11;;;;;;;0.90;0.80;;;;;;;;;;5050562;28;20025;-81
2023/10/06 17:17:44;;;;;;;0.85;0.70;;;;;;;;;;5048620;28;20078;-81
2023/10/06 17:20:17;;;;;;;1.23;0.68;;;;;;;;;;5047903;28;20890;-82
2023/10/06 17:22:43;;;;;;;0.32;0.32;;;;;;;;;;5049223;28;20418;-81
2023/10/06 17:25:16;;;;;;;1.83;0.77;;;;;;;;;;5057978;28;20032;-83
2023/10/06 17:27:47;;;;;;;1.67;1.30;;;;;;;;;;5061816;28;20048;-83
2023/10/06 17:30:20;;;;;;;1.08;0.63;;;;;;;;;;5055974;28;20025;-83
2023/10/06 17:32:47;;;;;;;2.80;1.73;;;;;;;;;;5057127;28;20032;-82
2023/10/06 17:35:13;;;;;;;1.50;1.00;;;;;;;;;;5047329;28;20033;-83
2023/10/06 17:37:41;;;;;;;1.55;0.70;;;;;;;;;;5060205;28;20044;-82
2023/10/06 17:40:07;;;;;;;0.73;0.50;;;;;;;;;;5057496;28;20099;-83
2023/10/06 17:42:34;;;;;;;1.33;0.75;;;;;;;;;;5057618;28;20036;-83
2023/10/06 17:45:02;;;;;;;2.47;1.23;;;;;;;;;;5055772;28;20043;-82
2023/10/06 17:47:29;;;;;;;2.78;1.10;;;;;;;;;;5054968;28;20387;-83
2023/10/06 17:49:54;;;;;;;1.67;0.90;;;;;;;;;;5057226;28;20499;-83
2023/10/06 17:52:21;;;;;;;1.52;1.00;;;;;;;;;;5058345;28;20033;-83
2023/10/06 17:54:46;;;;;;;1.73;0.93;;;;;;;;;;5063514;28;20052;-81
2023/10/06 17:57:11;;;;;;;2.17;0.75;;;;;;;;;;5062047;28;20500;-84
